sensor_id;sensor_type;location;lat;lon;timestamp;P1;durP1;ratioP1;P2;durP2;ratioP2
10246;SDS011;5168;47.854;7.944;2022-08-21T00:02:21;2.53;;;1.60;;
10246;SDS011;5168;47.854;7.944;2022-08-21T00:04:48;1.60;;;1.50;;
10246;SDS011;5168;47.854;7.944;2022-08-21T00:07:15;1.50;;;1.40;;
10246;SDS011;5168;47.854;7.944;2022-08-21T00:09:42;1.60;;;1.40;;
10246;SDS011;5168;47.854;7.944;2022-08-21T00:12:08;1.40;;;1.30;;
10246;SDS011;5168;47.854;7.944;2022-08-21T00:14:34;2.40;;;1.67;;
10246;SDS011;5168;47.854;7.944;2022-08-21T00:17:00;1.83;;;1.50;;
10246;SDS011;5168;47.854;7.944;2022-08-21T00:19:26;2.90;;;2.60;;
10246;SDS011;5168;47.854;7.944;2022-08-21T00:21:53;2.93;;;2.60;;
10246;SDS011;5168;47.854;7.944;2022-08-21T00:24:20;2.50;;;2.20;;
10246;SDS011;5168;47.854;7.944;2022-08-21T00:26:47;2.17;;;1.90;;
10246;SDS011;5168;47.854;7.944;2022-08-21T00:29:13;2.50;;;2.30;;
10246;SDS011;5168;47.854;7.944;2022-08-21T00:31:40;1.83;;;1.73;;
10246;SDS011;5168;47.854;7.944;2022-08-21T00:34:06;1.77;;;1.60;;
10246;SDS011;5168;47.854;7.944;2022-08-21T00:36:33;2.50;;;1.60;;
10246;SDS011;5168;47.854;7.944;2022-08-21T00:38:59;1.60;;;1.50;;
10246;SDS011;5168;47.854;7.944;2022-08-21T00:41:25;1.73;;;1.53;;
10246;SDS011;5168;47.854;7.944;2022-08-21T00:43:52;1.60;;;1.50;;
10246;SDS011;5168;47.854;7.944;2022-08-21T00:46:18;1.93;;;1.63;;
10246;SDS011;5168;47.854;7.944;2022-08-21T00:48:44;2.47;;;1.50;;
10246;SDS011;5168;47.854;7.944;2022-08-21T00:51:11;1.60;;;1.40;;
10246;SDS011;5168;47.854;7.944;2022-08-21T00:53:48;1.97;;;1.30;;
10246;SDS011;5168;47.854;7.944;2022-08-21T00:56:18;1.67;;;1.57;;
10246;SDS011;5168;47.854;7.944;2022-08-21T00:58:45;1.53;;;1.30;;
10246;SDS011;5168;47.854;7.944;2022-08-21T01:01:12;1.40;;;1.30;;
10246;SDS011;5168;47.854;7.944;2022-08-21T01:03:38;3.67;;;1.50;;
10246;SDS011;5168;47.854;7.944;2022-08-21T01:06:04;1.60;;;1.50;;
10246;SDS011;5168;47.854;7.944;2022-08-21T01:08:30;1.90;;;1.80;;
10246;SDS011;5168;47.854;7.944;2022-08-21T01:10:57;2.90;;;1.60;;
10246;SDS011;5168;47.854;7.944;2022-08-21T01:13:24;1.70;;;1.60;;
10246;SDS011;5168;47.854;7.944;2022-08-21T01:15:53;1.70;;;1.60;;
10246;SDS011;5168;47.854;7.944;2022-08-21T01:18:20;1.60;;;1.50;;
10246;SDS011;5168;47.854;7.944;2022-08-21T01:23:34;2.20;;;1.60;;
10246;SDS011;5168;47.854;7.944;2022-08-21T01:26:02;2.43;;;1.63;;
10246;SDS011;5168;47.854;7.944;2022-08-21T01:28:28;2.27;;;1.60;;
10246;SDS011;5168;47.854;7.944;2022-08-21T01:30:59;1.70;;;1.50;;
10246;SDS011;5168;47.854;7.944;2022-08-21T01:33:27;2.03;;;1.80;;
10246;SDS011;5168;47.854;7.944;2022-08-21T01:35:53;1.60;;;1.50;;
10246;SDS011;5168;47.854;7.944;2022-08-21T01:38:19;1.70;;;1.60;;
10246;SDS011;5168;47.854;7.944;2022-08-21T01:40:45;1.70;;;1.50;;
10246;SDS011;5168;47.854;7.944;2022-08-21T01:43:11;1.73;;;1.63;;
10246;SDS011;5168;47.854;7.944;2022-08-21T01:45:36;2.50;;;1.50;;
10246;SDS011;5168;47.854;7.944;2022-08-21T01:48:02;1.50;;;1.40;;
10246;SDS011;5168;47.854;7.944;2022-08-21T01:50:28;2.40;;;1.40;;
10246;SDS011;5168;47.854;7.944;2022-08-21T01:52:54;1.70;;;1.60;;
10246;SDS011;5168;47.854;7.944;2022-08-21T01:55:20;1.50;;;1.40;;
10246;SDS011;5168;47.854;7.944;2022-08-21T01:57:47;1.77;;;1.63;;
10246;SDS011;5168;47.854;7.944;2022-08-21T02:00:14;1.50;;;1.40;;
10246;SDS011;5168;47.854;7.944;2022-08-21T02:02:41;1.50;;;1.40;;
10246;SDS011;5168;47.854;7.944;2022-08-21T02:05:08;1.50;;;1.40;;
10246;SDS011;5168;47.854;7.944;2022-08-21T02:07:39;1.67;;;1.50;;
10246;SDS011;5168;47.854;7.944;2022-08-21T02:10:08;1.63;;;1.53;;
10246;SDS011;5168;47.854;7.944;2022-08-21T02:12:35;1.60;;;1.50;;
10246;SDS011;5168;47.854;7.944;2022-08-21T02:15:01;1.70;;;1.60;;
10246;SDS011;5168;47.854;7.944;2022-08-21T02:17:36;1.63;;;1.53;;
10246;SDS011;5168;47.854;7.944;2022-08-21T02:20:11;2.77;;;1.50;;
10246;SDS011;5168;47.854;7.944;2022-08-21T02:22:45;4.13;;;1.73;;
10246;SDS011;5168;47.854;7.944;2022-08-21T02:25:11;1.70;;;1.60;;
10246;SDS011;5168;47.854;7.944;2022-08-21T02:27:38;1.70;;;1.60;;
10246;SDS011;5168;47.854;7.944;2022-08-21T02:30:08;1.90;;;1.50;;
10246;SDS011;5168;47.854;7.944;2022-08-21T02:32:43;1.70;;;1.60;;
10246;SDS011;5168;47.854;7.944;2022-08-21T02:35:09;2.37;;;1.80;;
10246;SDS011;5168;47.854;7.944;2022-08-21T02:37:43;2.27;;;1.70;;
10246;SDS011;5168;47.854;7.944;2022-08-21T02:40:12;1.93;;;1.70;;
10246;SDS011;5168;47.854;7.944;2022-08-21T02:42:37;1.70;;;1.60;;
10246;SDS011;5168;47.854;7.944;2022-08-21T02:45:04;1.77;;;1.67;;
10246;SDS011;5168;47.854;7.944;2022-08-21T02:47:31;2.03;;;1.77;;
10246;SDS011;5168;47.854;7.944;2022-08-21T02:49:57;1.60;;;1.50;;
10246;SDS011;5168;47.854;7.944;2022-08-21T02:52:22;1.60;;;1.50;;
10246;SDS011;5168;47.854;7.944;2022-08-21T02:54:49;2.30;;;1.80;;
10246;SDS011;5168;47.854;7.944;2022-08-21T02:57:14;2.60;;;1.90;;
10246;SDS011;5168;47.854;7.944;2022-08-21T02:59:40;2.17;;;1.70;;
10246;SDS011;5168;47.854;7.944;2022-08-21T03:02:06;1.70;;;1.60;;
10246;SDS011;5168;47.854;7.944;2022-08-21T03:04:31;6.50;;;2.30;;
10246;SDS011;5168;47.854;7.944;2022-08-21T03:06:57;2.43;;;1.70;;
10246;SDS011;5168;47.854;7.944;2022-08-21T03:09:23;2.87;;;1.77;;
10246;SDS011;5168;47.854;7.944;2022-08-21T03:11:49;1.93;;;1.73;;
10246;SDS011;5168;47.854;7.944;2022-08-21T03:14:16;3.07;;;1.77;;
10246;SDS011;5168;47.854;7.944;2022-08-21T03:16:42;2.93;;;1.90;;
10246;SDS011;5168;47.854;7.944;2022-08-21T03:19:08;2.53;;;1.80;;
10246;SDS011;5168;47.854;7.944;2022-08-21T03:21:34;2.93;;;1.70;;
10246;SDS011;5168;47.854;7.944;2022-08-21T03:23:59;2.10;;;1.63;;
10246;SDS011;5168;47.854;7.944;2022-08-21T03:26:25;3.83;;;1.73;;
10246;SDS011;5168;47.854;7.944;2022-08-21T03:28:51;2.00;;;1.80;;
10246;SDS011;5168;47.854;7.944;2022-08-21T03:31:17;2.07;;;1.60;;
10246;SDS011;5168;47.854;7.944;2022-08-21T03:33:43;2.13;;;1.60;;
10246;SDS011;5168;47.854;7.944;2022-08-21T03:36:09;1.60;;;1.40;;
10246;SDS011;5168;47.854;7.944;2022-08-21T03:38:37;1.70;;;1.60;;
10246;SDS011;5168;47.854;7.944;2022-08-21T03:41:03;1.60;;;1.50;;
10246;SDS011;5168;47.854;7.944;2022-08-21T03:43:30;4.33;;;1.63;;
10246;SDS011;5168;47.854;7.944;2022-08-21T03:45:56;1.60;;;1.50;;
10246;SDS011;5168;47.854;7.944;2022-08-21T03:48:22;1.70;;;1.60;;
10246;SDS011;5168;47.854;7.944;2022-08-21T03:50:48;1.73;;;1.50;;
10246;SDS011;5168;47.854;7.944;2022-08-21T03:53:17;1.47;;;1.37;;
10246;SDS011;5168;47.854;7.944;2022-08-21T03:55:46;1.60;;;1.50;;
10246;SDS011;5168;47.854;7.944;2022-08-21T03:58:14;1.60;;;1.50;;
10246;SDS011;5168;47.854;7.944;2022-08-21T04:00:41;1.43;;;1.33;;
10246;SDS011;5168;47.854;7.944;2022-08-21T04:03:07;1.40;;;1.30;;
10246;SDS011;5168;47.854;7.944;2022-08-21T04:05:32;2.17;;;1.50;;
10246;SDS011;5168;47.854;7.944;2022-08-21T04:08:02;1.50;;;1.40;;
10246;SDS011;5168;47.854;7.944;2022-08-21T04:10:30;2.33;;;1.50;;
10246;SDS011;5168;47.854;7.944;2022-08-21T04:12:57;1.67;;;1.57;;
10246;SDS011;5168;47.854;7.944;2022-08-21T04:15:24;1.70;;;1.60;;
10246;SDS011;5168;47.854;7.944;2022-08-21T04:17:51;1.90;;;1.70;;
10246;SDS011;5168;47.854;7.944;2022-08-21T04:20:17;1.73;;;1.63;;
10246;SDS011;5168;47.854;7.944;2022-08-21T04:22:43;1.80;;;1.57;;
10246;SDS011;5168;47.854;7.944;2022-08-21T04:25:11;1.70;;;1.60;;
10246;SDS011;5168;47.854;7.944;2022-08-21T04:27:37;1.80;;;1.70;;
10246;SDS011;5168;47.854;7.944;2022-08-21T04:30:05;1.60;;;1.50;;
10246;SDS011;5168;47.854;7.944;2022-08-21T04:32:31;1.70;;;1.60;;
10246;SDS011;5168;47.854;7.944;2022-08-21T04:34:58;1.50;;;1.40;;
10246;SDS011;5168;47.854;7.944;2022-08-21T04:37:25;1.60;;;1.50;;
10246;SDS011;5168;47.854;7.944;2022-08-21T04:39:51;1.50;;;1.40;;
10246;SDS011;5168;47.854;7.944;2022-08-21T04:42:17;1.63;;;1.53;;
10246;SDS011;5168;47.854;7.944;2022-08-21T04:44:43;1.50;;;1.40;;
10246;SDS011;5168;47.854;7.944;2022-08-21T04:47:09;1.63;;;1.53;;
10246;SDS011;5168;47.854;7.944;2022-08-21T04:49:35;1.70;;;1.60;;
10246;SDS011;5168;47.854;7.944;2022-08-21T04:52:01;1.93;;;1.73;;
10246;SDS011;5168;47.854;7.944;2022-08-21T04:54:27;2.60;;;1.50;;
10246;SDS011;5168;47.854;7.944;2022-08-21T04:56:54;1.50;;;1.40;;
10246;SDS011;5168;47.854;7.944;2022-08-21T04:59:28;1.60;;;1.50;;
10246;SDS011;5168;47.854;7.944;2022-08-21T05:01:57;1.80;;;1.50;;
10246;SDS011;5168;47.854;7.944;2022-08-21T05:04:27;1.60;;;1.50;;
10246;SDS011;5168;47.854;7.944;2022-08-21T05:06:58;2.10;;;1.50;;
10246;SDS011;5168;47.854;7.944;2022-08-21T05:09:27;1.70;;;1.60;;
10246;SDS011;5168;47.854;7.944;2022-08-21T05:11:53;2.33;;;1.50;;
10246;SDS011;5168;47.854;7.944;2022-08-21T05:14:19;1.60;;;1.50;;
10246;SDS011;5168;47.854;7.944;2022-08-21T05:16:45;2.10;;;1.73;;
10246;SDS011;5168;47.854;7.944;2022-08-21T05:19:11;1.50;;;1.40;;
10246;SDS011;5168;47.854;7.944;2022-08-21T05:21:42;1.70;;;1.60;;
10246;SDS011;5168;47.854;7.944;2022-08-21T05:24:09;1.80;;;1.70;;
10246;SDS011;5168;47.854;7.944;2022-08-21T05:26:36;1.70;;;1.60;;
10246;SDS011;5168;47.854;7.944;2022-08-21T05:29:02;1.60;;;1.50;;
10246;SDS011;5168;47.854;7.944;2022-08-21T05:31:29;1.60;;;1.50;;
10246;SDS011;5168;47.854;7.944;2022-08-21T05:33:54;1.70;;;1.60;;
10246;SDS011;5168;47.854;7.944;2022-08-21T05:36:20;1.50;;;1.40;;
10246;SDS011;5168;47.854;7.944;2022-08-21T05:38:47;1.67;;;1.57;;
10246;SDS011;5168;47.854;7.944;2022-08-21T05:41:13;1.67;;;1.57;;
10246;SDS011;5168;47.854;7.944;2022-08-21T05:43:39;1.83;;;1.63;;
10246;SDS011;5168;47.854;7.944;2022-08-21T05:46:05;1.47;;;1.37;;
10246;SDS011;5168;47.854;7.944;2022-08-21T05:48:32;1.57;;;1.47;;
10246;SDS011;5168;47.854;7.944;2022-08-21T05:51:03;2.00;;;1.90;;
10246;SDS011;5168;47.854;7.944;2022-08-21T05:53:30;1.70;;;1.60;;
10246;SDS011;5168;47.854;7.944;2022-08-21T05:55:56;1.60;;;1.50;;
10246;SDS011;5168;47.854;7.944;2022-08-21T05:58:22;1.80;;;1.70;;
10246;SDS011;5168;47.854;7.944;2022-08-21T06:00:48;1.70;;;1.60;;
10246;SDS011;5168;47.854;7.944;2022-08-21T06:03:19;1.60;;;1.50;;
10246;SDS011;5168;47.854;7.944;2022-08-21T06:05:47;1.50;;;1.40;;
10246;SDS011;5168;47.854;7.944;2022-08-21T06:08:13;1.77;;;1.67;;
10246;SDS011;5168;47.854;7.944;2022-08-21T06:10:41;1.70;;;1.60;;
10246;SDS011;5168;47.854;7.944;2022-08-21T06:13:07;1.60;;;1.50;;
10246;SDS011;5168;47.854;7.944;2022-08-21T06:15:33;2.10;;;1.93;;
10246;SDS011;5168;47.854;7.944;2022-08-21T06:17:59;1.70;;;1.60;;
10246;SDS011;5168;47.854;7.944;2022-08-21T06:20:24;1.60;;;1.50;;
10246;SDS011;5168;47.854;7.944;2022-08-21T06:22:50;1.63;;;1.53;;
10246;SDS011;5168;47.854;7.944;2022-08-21T06:25:16;1.63;;;1.53;;
10246;SDS011;5168;47.854;7.944;2022-08-21T06:27:42;2.00;;;1.90;;
10246;SDS011;5168;47.854;7.944;2022-08-21T06:30:08;1.80;;;1.70;;
10246;SDS011;5168;47.854;7.944;2022-08-21T06:32:34;1.50;;;1.40;;
10246;SDS011;5168;47.854;7.944;2022-08-21T06:34:59;1.80;;;1.70;;
10246;SDS011;5168;47.854;7.944;2022-08-21T06:37:25;1.70;;;1.60;;
10246;SDS011;5168;47.854;7.944;2022-08-21T06:39:51;1.40;;;1.30;;
10246;SDS011;5168;47.854;7.944;2022-08-21T06:42:17;1.40;;;1.30;;
10246;SDS011;5168;47.854;7.944;2022-08-21T06:44:43;1.30;;;1.20;;
10246;SDS011;5168;47.854;7.944;2022-08-21T06:47:09;1.60;;;1.50;;
10246;SDS011;5168;47.854;7.944;2022-08-21T06:49:35;1.40;;;1.30;;
10246;SDS011;5168;47.854;7.944;2022-08-21T06:52:01;1.57;;;1.47;;
10246;SDS011;5168;47.854;7.944;2022-08-21T06:54:27;1.40;;;1.30;;
10246;SDS011;5168;47.854;7.944;2022-08-21T06:56:53;1.40;;;1.30;;
10246;SDS011;5168;47.854;7.944;2022-08-21T06:59:19;1.50;;;1.40;;
10246;SDS011;5168;47.854;7.944;2022-08-21T07:01:44;1.40;;;1.30;;
10246;SDS011;5168;47.854;7.944;2022-08-21T07:04:11;1.30;;;1.20;;
10246;SDS011;5168;47.854;7.944;2022-08-21T07:06:36;1.50;;;1.40;;
10246;SDS011;5168;47.854;7.944;2022-08-21T07:09:02;1.60;;;1.50;;
10246;SDS011;5168;47.854;7.944;2022-08-21T07:11:28;1.50;;;1.40;;
10246;SDS011;5168;47.854;7.944;2022-08-21T07:13:54;1.50;;;1.40;;
10246;SDS011;5168;47.854;7.944;2022-08-21T07:16:21;1.50;;;1.27;;
10246;SDS011;5168;47.854;7.944;2022-08-21T07:18:47;1.60;;;1.50;;
10246;SDS011;5168;47.854;7.944;2022-08-21T07:21:13;1.47;;;1.37;;
10246;SDS011;5168;47.854;7.944;2022-08-21T07:23:45;1.47;;;1.30;;
10246;SDS011;5168;47.854;7.944;2022-08-21T07:26:13;1.30;;;1.20;;
10246;SDS011;5168;47.854;7.944;2022-08-21T07:28:40;1.60;;;1.50;;
10246;SDS011;5168;47.854;7.944;2022-08-21T07:31:06;1.33;;;1.23;;
10246;SDS011;5168;47.854;7.944;2022-08-21T07:33:34;1.30;;;1.20;;
10246;SDS011;5168;47.854;7.944;2022-08-21T07:36:00;1.30;;;1.20;;
10246;SDS011;5168;47.854;7.944;2022-08-21T07:38:26;1.67;;;1.30;;
10246;SDS011;5168;47.854;7.944;2022-08-21T07:40:53;1.57;;;1.30;;
10246;SDS011;5168;47.854;7.944;2022-08-21T07:43:21;1.10;;;1.00;;
10246;SDS011;5168;47.854;7.944;2022-08-21T07:45:47;1.50;;;1.40;;
10246;SDS011;5168;47.854;7.944;2022-08-21T07:48:16;1.37;;;1.27;;
10246;SDS011;5168;47.854;7.944;2022-08-21T07:50:42;1.63;;;1.37;;
10246;SDS011;5168;47.854;7.944;2022-08-21T07:53:08;1.73;;;1.23;;
10246;SDS011;5168;47.854;7.944;2022-08-21T07:55:34;1.30;;;1.20;;
10246;SDS011;5168;47.854;7.944;2022-08-21T07:57:59;1.50;;;1.40;;
10246;SDS011;5168;47.854;7.944;2022-08-21T08:00:26;1.57;;;1.47;;
10246;SDS011;5168;47.854;7.944;2022-08-21T08:02:53;1.30;;;1.20;;
10246;SDS011;5168;47.854;7.944;2022-08-21T08:05:22;1.37;;;1.27;;
10246;SDS011;5168;47.854;7.944;2022-08-21T08:07:49;1.40;;;1.30;;
10246;SDS011;5168;47.854;7.944;2022-08-21T08:10:15;1.40;;;1.30;;
10246;SDS011;5168;47.854;7.944;2022-08-21T08:12:42;1.80;;;1.30;;
10246;SDS011;5168;47.854;7.944;2022-08-21T08:15:10;1.50;;;1.30;;
10246;SDS011;5168;47.854;7.944;2022-08-21T08:17:37;1.73;;;1.30;;
10246;SDS011;5168;47.854;7.944;2022-08-21T08:20:04;2.13;;;1.30;;
10246;SDS011;5168;47.854;7.944;2022-08-21T08:22:31;1.47;;;1.30;;
10246;SDS011;5168;47.854;7.944;2022-08-21T08:24:57;1.77;;;1.43;;
10246;SDS011;5168;47.854;7.944;2022-08-21T08:27:24;1.83;;;1.40;;
10246;SDS011;5168;47.854;7.944;2022-08-21T08:29:50;2.93;;;1.67;;
10246;SDS011;5168;47.854;7.944;2022-08-21T08:32:16;2.60;;;1.43;;
10246;SDS011;5168;47.854;7.944;2022-08-21T08:34:42;5.27;;;2.00;;
10246;SDS011;5168;47.854;7.944;2022-08-21T08:37:08;3.73;;;1.73;;
10246;SDS011;5168;47.854;7.944;2022-08-21T08:39:35;2.40;;;1.80;;
10246;SDS011;5168;47.854;7.944;2022-08-21T08:44:46;2.07;;;1.60;;
10246;SDS011;5168;47.854;7.944;2022-08-21T08:47:13;1.70;;;1.60;;
10246;SDS011;5168;47.854;7.944;2022-08-21T08:49:59;2.07;;;1.60;;
10246;SDS011;5168;47.854;7.944;2022-08-21T08:52:33;2.23;;;1.50;;
10246;SDS011;5168;47.854;7.944;2022-08-21T08:57:44;1.97;;;1.60;;
10246;SDS011;5168;47.854;7.944;2022-08-21T09:00:12;2.37;;;1.80;;
10246;SDS011;5168;47.854;7.944;2022-08-21T09:02:41;2.37;;;1.60;;
10246;SDS011;5168;47.854;7.944;2022-08-21T09:05:55;2.07;;;1.60;;
10246;SDS011;5168;47.854;7.944;2022-08-21T09:11:26;1.50;;;1.40;;
10246;SDS011;5168;47.854;7.944;2022-08-21T09:14:16;2.17;;;1.50;;
10246;SDS011;5168;47.854;7.944;2022-08-21T09:17:12;2.60;;;1.73;;
10246;SDS011;5168;47.854;7.944;2022-08-21T09:19:44;2.47;;;2.27;;
10246;SDS011;5168;47.854;7.944;2022-08-21T09:22:23;2.60;;;1.60;;
10246;SDS011;5168;47.854;7.944;2022-08-21T09:27:47;2.07;;;1.30;;
10246;SDS011;5168;47.854;7.944;2022-08-21T09:30:14;1.70;;;1.33;;
10246;SDS011;5168;47.854;7.944;2022-08-21T09:32:39;1.40;;;1.30;;
10246;SDS011;5168;47.854;7.944;2022-08-21T09:35:16;1.57;;;1.40;;
10246;SDS011;5168;47.854;7.944;2022-08-21T09:43:02;1.70;;;1.50;;
10246;SDS011;5168;47.854;7.944;2022-08-21T09:45:43;1.43;;;1.30;;
10246;SDS011;5168;47.854;7.944;2022-08-21T09:48:20;1.97;;;1.60;;
10246;SDS011;5168;47.854;7.944;2022-08-21T09:50:48;1.40;;;1.30;;
10246;SDS011;5168;47.854;7.944;2022-08-21T09:53:16;1.90;;;1.30;;
10246;SDS011;5168;47.854;7.944;2022-08-21T09:55:52;4.47;;;1.80;;
10246;SDS011;5168;47.854;7.944;2022-08-21T09:58:43;4.03;;;2.20;;
10246;SDS011;5168;47.854;7.944;2022-08-21T10:01:23;3.53;;;1.87;;
10246;SDS011;5168;47.854;7.944;2022-08-21T10:04:03;2.70;;;1.70;;
10246;SDS011;5168;47.854;7.944;2022-08-21T10:06:32;4.17;;;2.10;;
10246;SDS011;5168;47.854;7.944;2022-08-21T10:11:48;2.13;;;1.93;;
10246;SDS011;5168;47.854;7.944;2022-08-21T10:14:22;3.40;;;1.80;;
10246;SDS011;5168;47.854;7.944;2022-08-21T10:19:59;3.53;;;1.70;;
10246;SDS011;5168;47.854;7.944;2022-08-21T10:25:29;2.83;;;1.80;;
10246;SDS011;5168;47.854;7.944;2022-08-21T10:31:00;4.07;;;1.77;;
10246;SDS011;5168;47.854;7.944;2022-08-21T10:36:32;3.13;;;1.70;;
10246;SDS011;5168;47.854;7.944;2022-08-21T10:47:36;2.20;;;1.77;;
10246;SDS011;5168;47.854;7.944;2022-08-21T10:53:02;4.20;;;1.80;;
10246;SDS011;5168;47.854;7.944;2022-08-21T10:55:41;1.73;;;1.50;;
10246;SDS011;5168;47.854;7.944;2022-08-21T10:58:21;2.40;;;1.50;;
10246;SDS011;5168;47.854;7.944;2022-08-21T11:00:55;2.00;;;1.60;;
10246;SDS011;5168;47.854;7.944;2022-08-21T11:03:51;1.83;;;1.63;;
10246;SDS011;5168;47.854;7.944;2022-08-21T11:06:24;2.20;;;1.67;;
10246;SDS011;5168;47.854;7.944;2022-08-21T11:08:55;2.70;;;2.00;;
10246;SDS011;5168;47.854;7.944;2022-08-21T11:11:29;3.10;;;1.60;;
10246;SDS011;5168;47.854;7.944;2022-08-21T11:14:11;2.73;;;1.70;;
10246;SDS011;5168;47.854;7.944;2022-08-21T11:17:00;1.97;;;1.57;;
10246;SDS011;5168;47.854;7.944;2022-08-21T11:19:36;3.23;;;1.90;;
10246;SDS011;5168;47.854;7.944;2022-08-21T11:22:18;5.43;;;2.03;;
10246;SDS011;5168;47.854;7.944;2022-08-21T11:24:51;2.20;;;2.00;;
10246;SDS011;5168;47.854;7.944;2022-08-21T11:27:26;3.40;;;2.20;;
10246;SDS011;5168;47.854;7.944;2022-08-21T11:30:13;3.25;;;2.10;;
10246;SDS011;5168;47.854;7.944;2022-08-21T11:32:43;3.33;;;1.88;;
10246;SDS011;5168;47.854;7.944;2022-08-21T11:35:22;3.03;;;1.92;;
10246;SDS011;5168;47.854;7.944;2022-08-21T11:40:50;3.58;;;1.90;;
10246;SDS011;5168;47.854;7.944;2022-08-21T11:43:39;4.63;;;2.40;;
10246;SDS011;5168;47.854;7.944;2022-08-21T11:51:45;6.03;;;2.17;;
10246;SDS011;5168;47.854;7.944;2022-08-21T11:56:48;6.20;;;1.88;;
10246;SDS011;5168;47.854;7.944;2022-08-21T11:59:37;2.92;;;2.10;;
10246;SDS011;5168;47.854;7.944;2022-08-21T12:02:15;2.55;;;1.70;;
10246;SDS011;5168;47.854;7.944;2022-08-21T12:04:47;5.53;;;1.80;;
10246;SDS011;5168;47.854;7.944;2022-08-21T12:10:18;7.30;;;2.15;;
10246;SDS011;5168;47.854;7.944;2022-08-21T12:12:55;3.35;;;2.20;;
10246;SDS011;5168;47.854;7.944;2022-08-21T12:15:33;5.05;;;2.28;;
10246;SDS011;5168;47.854;7.944;2022-08-21T12:23:44;7.63;;;2.30;;
10246;SDS011;5168;47.854;7.944;2022-08-21T12:26:25;4.40;;;2.13;;
10246;SDS011;5168;47.854;7.944;2022-08-21T12:29:03;4.03;;;1.90;;
10246;SDS011;5168;47.854;7.944;2022-08-21T12:31:33;6.63;;;2.35;;
10246;SDS011;5168;47.854;7.944;2022-08-21T12:33:59;3.63;;;2.30;;
10246;SDS011;5168;47.854;7.944;2022-08-21T12:36:40;3.95;;;1.98;;
10246;SDS011;5168;47.854;7.944;2022-08-21T12:39:13;4.78;;;2.13;;
10246;SDS011;5168;47.854;7.944;2022-08-21T12:41:49;4.43;;;2.60;;
10246;SDS011;5168;47.854;7.944;2022-08-21T12:44:22;3.92;;;2.75;;
10246;SDS011;5168;47.854;7.944;2022-08-21T12:46:56;6.55;;;2.20;;
10246;SDS011;5168;47.854;7.944;2022-08-21T12:49:36;3.70;;;1.80;;
10246;SDS011;5168;47.854;7.944;2022-08-21T12:52:16;5.97;;;2.33;;
10246;SDS011;5168;47.854;7.944;2022-08-21T12:54:53;3.35;;;1.95;;
10246;SDS011;5168;47.854;7.944;2022-08-21T12:57:20;3.65;;;2.10;;
10246;SDS011;5168;47.854;7.944;2022-08-21T12:59:59;3.80;;;2.00;;
10246;SDS011;5168;47.854;7.944;2022-08-21T13:02:28;3.83;;;2.15;;
10246;SDS011;5168;47.854;7.944;2022-08-21T13:04:56;2.75;;;1.90;;
10246;SDS011;5168;47.854;7.944;2022-08-21T13:07:27;4.30;;;2.00;;
10246;SDS011;5168;47.854;7.944;2022-08-21T13:09:58;5.10;;;1.88;;
10246;SDS011;5168;47.854;7.944;2022-08-21T13:12:27;2.55;;;1.73;;
10246;SDS011;5168;47.854;7.944;2022-08-21T13:14:58;1.90;;;1.70;;
10246;SDS011;5168;47.854;7.944;2022-08-21T13:17:29;7.18;;;1.70;;
10246;SDS011;5168;47.854;7.944;2022-08-21T13:22:24;3.38;;;1.80;;
10246;SDS011;5168;47.854;7.944;2022-08-21T13:24:51;2.67;;;1.90;;
10246;SDS011;5168;47.854;7.944;2022-08-21T13:27:22;2.17;;;1.70;;
10246;SDS011;5168;47.854;7.944;2022-08-21T13:29:59;3.13;;;1.92;;
10246;SDS011;5168;47.854;7.944;2022-08-21T13:32:46;5.57;;;2.00;;
10246;SDS011;5168;47.854;7.944;2022-08-21T13:35:19;4.65;;;2.00;;
10246;SDS011;5168;47.854;7.944;2022-08-21T13:37:48;2.35;;;1.45;;
10246;SDS011;5168;47.854;7.944;2022-08-21T13:40:19;3.05;;;1.60;;
10246;SDS011;5168;47.854;7.944;2022-08-21T13:42:49;2.80;;;1.63;;
10246;SDS011;5168;47.854;7.944;2022-08-21T13:45:16;3.45;;;2.08;;
10246;SDS011;5168;47.854;7.944;2022-08-21T13:47:56;4.00;;;2.15;;
10246;SDS011;5168;47.854;7.944;2022-08-21T13:50:22;2.00;;;1.80;;
10246;SDS011;5168;47.854;7.944;2022-08-21T13:52:53;5.00;;;1.77;;
10246;SDS011;5168;47.854;7.944;2022-08-21T13:55:24;4.07;;;1.70;;
10246;SDS011;5168;47.854;7.944;2022-08-21T13:57:58;3.85;;;2.05;;
10246;SDS011;5168;47.854;7.944;2022-08-21T14:00:26;3.75;;;1.98;;
10246;SDS011;5168;47.854;7.944;2022-08-21T14:02:54;2.92;;;1.73;;
10246;SDS011;5168;47.854;7.944;2022-08-21T14:05:29;2.85;;;1.83;;
10246;SDS011;5168;47.854;7.944;2022-08-21T14:08:05;3.83;;;1.90;;
10246;SDS011;5168;47.854;7.944;2022-08-21T14:10:36;5.50;;;2.25;;
10246;SDS011;5168;47.854;7.944;2022-08-21T14:13:14;2.85;;;1.60;;
10246;SDS011;5168;47.854;7.944;2022-08-21T14:15:54;3.13;;;1.85;;
10246;SDS011;5168;47.854;7.944;2022-08-21T14:18:24;4.00;;;1.70;;
10246;SDS011;5168;47.854;7.944;2022-08-21T14:21:05;2.30;;;1.42;;
10246;SDS011;5168;47.854;7.944;2022-08-21T14:23:33;2.92;;;1.65;;
10246;SDS011;5168;47.854;7.944;2022-08-21T14:25:59;3.15;;;1.60;;
10246;SDS011;5168;47.854;7.944;2022-08-21T14:30:53;1.92;;;1.60;;
10246;SDS011;5168;47.854;7.944;2022-08-21T14:33:23;2.28;;;1.60;;
10246;SDS011;5168;47.854;7.944;2022-08-21T14:35:54;3.35;;;1.63;;
10246;SDS011;5168;47.854;7.944;2022-08-21T14:38:22;2.33;;;1.70;;
10246;SDS011;5168;47.854;7.944;2022-08-21T14:40:51;2.65;;;1.70;;
10246;SDS011;5168;47.854;7.944;2022-08-21T14:43:18;2.25;;;1.70;;
10246;SDS011;5168;47.854;7.944;2022-08-21T14:45:44;4.80;;;1.80;;
10246;SDS011;5168;47.854;7.944;2022-08-21T14:48:10;5.43;;;1.90;;
10246;SDS011;5168;47.854;7.944;2022-08-21T14:50:36;2.40;;;1.65;;
10246;SDS011;5168;47.854;7.944;2022-08-21T14:53:02;2.17;;;1.75;;
10246;SDS011;5168;47.854;7.944;2022-08-21T14:55:29;2.20;;;1.73;;
10246;SDS011;5168;47.854;7.944;2022-08-21T14:58:15;3.78;;;1.90;;
10246;SDS011;5168;47.854;7.944;2022-08-21T15:00:41;4.72;;;1.92;;
10246;SDS011;5168;47.854;7.944;2022-08-21T15:03:07;2.92;;;1.75;;
10246;SDS011;5168;47.854;7.944;2022-08-21T15:05:32;4.47;;;1.95;;
10246;SDS011;5168;47.854;7.944;2022-08-21T15:07:58;2.20;;;1.52;;
10246;SDS011;5168;47.854;7.944;2022-08-21T15:10:24;2.10;;;1.73;;
10246;SDS011;5168;47.854;7.944;2022-08-21T15:12:50;3.35;;;1.75;;
10246;SDS011;5168;47.854;7.944;2022-08-21T15:15:16;2.47;;;1.70;;
10246;SDS011;5168;47.854;7.944;2022-08-21T15:17:41;3.25;;;1.67;;
10246;SDS011;5168;47.854;7.944;2022-08-21T15:20:07;4.93;;;1.90;;
10246;SDS011;5168;47.854;7.944;2022-08-21T15:22:34;3.47;;;1.90;;
10246;SDS011;5168;47.854;7.944;2022-08-21T15:25:00;3.25;;;1.90;;
10246;SDS011;5168;47.854;7.944;2022-08-21T15:27:26;3.63;;;1.80;;
10246;SDS011;5168;47.854;7.944;2022-08-21T15:29:52;2.17;;;1.60;;
10246;SDS011;5168;47.854;7.944;2022-08-21T15:32:23;2.30;;;1.60;;
10246;SDS011;5168;47.854;7.944;2022-08-21T15:34:52;2.10;;;1.70;;
10246;SDS011;5168;47.854;7.944;2022-08-21T15:37:19;3.05;;;1.98;;
10246;SDS011;5168;47.854;7.944;2022-08-21T15:39:45;2.53;;;1.90;;
10246;SDS011;5168;47.854;7.944;2022-08-21T15:42:11;1.70;;;1.55;;
10246;SDS011;5168;47.854;7.944;2022-08-21T15:44:39;1.70;;;1.50;;
10246;SDS011;5168;47.854;7.944;2022-08-21T15:47:05;2.22;;;1.70;;
10246;SDS011;5168;47.854;7.944;2022-08-21T15:49:31;2.60;;;1.40;;
10246;SDS011;5168;47.854;7.944;2022-08-21T15:51:56;1.75;;;1.55;;
10246;SDS011;5168;47.854;7.944;2022-08-21T15:54:22;2.22;;;1.55;;
10246;SDS011;5168;47.854;7.944;2022-08-21T15:56:48;1.55;;;1.30;;
10246;SDS011;5168;47.854;7.944;2022-08-21T15:59:17;2.60;;;1.70;;
10246;SDS011;5168;47.854;7.944;2022-08-21T16:01:46;3.20;;;2.00;;
10246;SDS011;5168;47.854;7.944;2022-08-21T16:04:15;2.60;;;1.48;;
10246;SDS011;5168;47.854;7.944;2022-08-21T16:06:47;2.08;;;1.85;;
10246;SDS011;5168;47.854;7.944;2022-08-21T16:09:14;2.95;;;1.77;;
10246;SDS011;5168;47.854;7.944;2022-08-21T16:11:41;2.72;;;1.95;;
10246;SDS011;5168;47.854;7.944;2022-08-21T16:14:07;2.88;;;2.08;;
10246;SDS011;5168;47.854;7.944;2022-08-21T16:16:35;2.55;;;1.85;;
10246;SDS011;5168;47.854;7.944;2022-08-21T16:19:01;2.35;;;1.70;;
10246;SDS011;5168;47.854;7.944;2022-08-21T16:21:28;3.45;;;1.80;;
10246;SDS011;5168;47.854;7.944;2022-08-21T16:23:53;3.17;;;1.73;;